sensor_id;sensor_type;location;lat;lon;timestamp;temperature;humidity
23411;DHT22;11878;51.774;7.220;2022-10-30T00:00:21;14.40;99.90
23411;DHT22;11878;51.774;7.220;2022-10-30T00:03:23;14.40;99.90
23411;DHT22;11878;51.774;7.220;2022-10-30T00:06:25;14.40;99.90
23411;DHT22;11878;51.774;7.220;2022-10-30T00:09:27;14.30;99.90
23411;DHT22;11878;51.774;7.220;2022-10-30T00:12:28;14.40;99.90
23411;DHT22;11878;51.774;7.220;2022-10-30T00:15:31;14.30;99.90
23411;DHT22;11878;51.774;7.220;2022-10-30T00:18:35;14.30;99.90
23411;DHT22;11878;51.774;7.220;2022-10-30T00:21:37;14.20;99.90
23411;DHT22;11878;51.774;7.220;2022-10-30T00:24:39;14.30;99.90
23411;DHT22;11878;51.774;7.220;2022-10-30T00:27:40;14.30;99.90
23411;DHT22;11878;51.774;7.220;2022-10-30T00:30:42;14.30;99.90
23411;DHT22;11878;51.774;7.220;2022-10-30T00:33:48;14.20;99.90
23411;DHT22;11878;51.774;7.220;2022-10-30T00:36:50;14.30;99.90
23411;DHT22;11878;51.774;7.220;2022-10-30T00:39:52;14.20;99.90
23411;DHT22;11878;51.774;7.220;2022-10-30T00:42:54;14.20;99.90
23411;DHT22;11878;51.774;7.220;2022-10-30T00:46:02;14.20;99.90
23411;DHT22;11878;51.774;7.220;2022-10-30T00:49:12;14.20;99.90
23411;DHT22;11878;51.774;7.220;2022-10-30T00:52:16;14.20;99.90
23411;DHT22;11878;51.774;7.220;2022-10-30T00:55:23;14.10;99.90
23411;DHT22;11878;51.774;7.220;2022-10-30T00:58:33;14.10;99.90
23411;DHT22;11878;51.774;7.220;2022-10-30T01:01:38;14.10;99.90
23411;DHT22;11878;51.774;7.220;2022-10-30T01:04:42;14.10;99.90
23411;DHT22;11878;51.774;7.220;2022-10-30T01:07:45;14.10;99.90
23411;DHT22;11878;51.774;7.220;2022-10-30T01:10:47;14.00;99.90
23411;DHT22;11878;51.774;7.220;2022-10-30T01:13:51;14.10;99.90
23411;DHT22;11878;51.774;7.220;2022-10-30T01:33:01;14.10;99.90
23411;DHT22;11878;51.774;7.220;2022-10-30T01:39:38;14.10;99.90
23411;DHT22;11878;51.774;7.220;2022-10-30T01:46:07;14.10;99.90
23411;DHT22;11878;51.774;7.220;2022-10-30T01:53:09;14.00;99.90
23411;DHT22;11878;51.774;7.220;2022-10-30T01:59:54;14.00;99.90
23411;DHT22;11878;51.774;7.220;2022-10-30T02:02:57;13.90;99.90
23411;DHT22;11878;51.774;7.220;2022-10-30T02:06:00;13.90;99.90
23411;DHT22;11878;51.774;7.220;2022-10-30T02:09:04;13.90;99.90
23411;DHT22;11878;51.774;7.220;2022-10-30T02:12:07;13.90;99.90
23411;DHT22;11878;51.774;7.220;2022-10-30T02:15:10;13.90;99.90
23411;DHT22;11878;51.774;7.220;2022-10-30T02:18:12;13.90;99.90
23411;DHT22;11878;51.774;7.220;2022-10-30T02:21:14;13.90;99.90
23411;DHT22;11878;51.774;7.220;2022-10-30T02:24:17;13.80;99.90
23411;DHT22;11878;51.774;7.220;2022-10-30T02:27:19;13.80;99.90
23411;DHT22;11878;51.774;7.220;2022-10-30T02:30:20;13.70;99.90
23411;DHT22;11878;51.774;7.220;2022-10-30T02:33:22;13.70;99.90
23411;DHT22;11878;51.774;7.220;2022-10-30T02:36:27;13.60;99.90
23411;DHT22;11878;51.774;7.220;2022-10-30T02:39:29;13.50;99.90
23411;DHT22;11878;51.774;7.220;2022-10-30T02:42:31;13.60;99.90
23411;DHT22;11878;51.774;7.220;2022-10-30T02:45:32;13.50;99.90
23411;DHT22;11878;51.774;7.220;2022-10-30T02:48:34;13.50;99.90
23411;DHT22;11878;51.774;7.220;2022-10-30T02:51:36;13.40;99.90
23411;DHT22;11878;51.774;7.220;2022-10-30T02:54:38;13.30;99.90
23411;DHT22;11878;51.774;7.220;2022-10-30T02:57:39;13.30;99.90
23411;DHT22;11878;51.774;7.220;2022-10-30T03:00:41;13.20;99.90
23411;DHT22;11878;51.774;7.220;2022-10-30T03:03:44;13.20;99.90
23411;DHT22;11878;51.774;7.220;2022-10-30T03:06:46;13.20;99.90
23411;DHT22;11878;51.774;7.220;2022-10-30T03:09:48;13.20;99.90
23411;DHT22;11878;51.774;7.220;2022-10-30T03:12:49;13.20;99.90
23411;DHT22;11878;51.774;7.220;2022-10-30T03:15:51;13.10;99.90
23411;DHT22;11878;51.774;7.220;2022-10-30T03:18:53;13.00;99.90
23411;DHT22;11878;51.774;7.220;2022-10-30T03:21:54;13.00;99.90
23411;DHT22;11878;51.774;7.220;2022-10-30T03:24:56;13.00;99.90
23411;DHT22;11878;51.774;7.220;2022-10-30T03:27:58;12.90;99.90
23411;DHT22;11878;51.774;7.220;2022-10-30T03:31:04;13.00;99.90
23411;DHT22;11878;51.774;7.220;2022-10-30T03:34:06;12.90;99.90
23411;DHT22;11878;51.774;7.220;2022-10-30T03:37:08;13.00;99.90
23411;DHT22;11878;51.774;7.220;2022-10-30T03:40:10;12.90;99.90
23411;DHT22;11878;51.774;7.220;2022-10-30T03:43:12;12.90;99.90
23411;DHT22;11878;51.774;7.220;2022-10-30T03:46:14;12.80;99.90
23411;DHT22;11878;51.774;7.220;2022-10-30T03:49:16;12.70;99.90
23411;DHT22;11878;51.774;7.220;2022-10-30T03:52:18;12.70;99.90
23411;DHT22;11878;51.774;7.220;2022-10-30T03:55:22;12.70;99.90
23411;DHT22;11878;51.774;7.220;2022-10-30T03:58:26;12.70;99.90
23411;DHT22;11878;51.774;7.220;2022-10-30T04:01:33;12.60;99.90
23411;DHT22;11878;51.774;7.220;2022-10-30T04:04:35;12.60;99.90
23411;DHT22;11878;51.774;7.220;2022-10-30T04:07:36;12.60;99.90
23411;DHT22;11878;51.774;7.220;2022-10-30T04:10:42;12.60;99.90
23411;DHT22;11878;51.774;7.220;2022-10-30T04:13:46;12.50;99.90
23411;DHT22;11878;51.774;7.220;2022-10-30T04:16:47;12.30;99.90
23411;DHT22;11878;51.774;7.220;2022-10-30T04:19:49;12.30;99.90
23411;DHT22;11878;51.774;7.220;2022-10-30T04:23:02;12.40;99.90
23411;DHT22;11878;51.774;7.220;2022-10-30T04:26:04;12.40;99.90
23411;DHT22;11878;51.774;7.220;2022-10-30T04:29:09;12.50;99.90
23411;DHT22;11878;51.774;7.220;2022-10-30T04:32:11;12.40;99.90
23411;DHT22;11878;51.774;7.220;2022-10-30T04:35:14;12.30;99.90
23411;DHT22;11878;51.774;7.220;2022-10-30T04:38:16;12.30;99.90
23411;DHT22;11878;51.774;7.220;2022-10-30T04:41:21;12.20;99.90
23411;DHT22;11878;51.774;7.220;2022-10-30T04:44:33;12.20;99.90
23411;DHT22;11878;51.774;7.220;2022-10-30T04:47:34;12.00;99.90
23411;DHT22;11878;51.774;7.220;2022-10-30T04:50:37;12.00;99.90
23411;DHT22;11878;51.774;7.220;2022-10-30T04:53:39;12.00;99.90
23411;DHT22;11878;51.774;7.220;2022-10-30T04:56:44;12.00;99.90
23411;DHT22;11878;51.774;7.220;2022-10-30T04:59:45;12.00;99.90
23411;DHT22;11878;51.774;7.220;2022-10-30T05:02:47;12.00;99.90
23411;DHT22;11878;51.774;7.220;2022-10-30T05:06:04;11.80;99.90
23411;DHT22;11878;51.774;7.220;2022-10-30T05:09:07;11.80;99.90
23411;DHT22;11878;51.774;7.220;2022-10-30T05:12:12;11.90;99.90
23411;DHT22;11878;51.774;7.220;2022-10-30T05:15:24;11.80;99.90
23411;DHT22;11878;51.774;7.220;2022-10-30T05:18:26;11.90;99.90
23411;DHT22;11878;51.774;7.220;2022-10-30T05:21:28;11.80;99.90
23411;DHT22;11878;51.774;7.220;2022-10-30T05:24:30;11.80;99.90
23411;DHT22;11878;51.774;7.220;2022-10-30T05:27:32;11.80;99.90
23411;DHT22;11878;51.774;7.220;2022-10-30T05:30:36;11.80;99.90
23411;DHT22;11878;51.774;7.220;2022-10-30T05:33:42;11.80;99.90
23411;DHT22;11878;51.774;7.220;2022-10-30T05:36:45;11.80;99.90
23411;DHT22;11878;51.774;7.220;2022-10-30T05:39:48;11.70;99.90
23411;DHT22;11878;51.774;7.220;2022-10-30T05:43:00;11.70;99.90
23411;DHT22;11878;51.774;7.220;2022-10-30T05:46:03;11.70;99.90
23411;DHT22;11878;51.774;7.220;2022-10-30T05:49:06;11.50;99.90
23411;DHT22;11878;51.774;7.220;2022-10-30T05:52:08;12.70;99.90
23411;DHT22;11878;51.774;7.220;2022-10-30T05:55:10;11.60;99.90
23411;DHT22;11878;51.774;7.220;2022-10-30T05:58:25;11.70;99.90
23411;DHT22;11878;51.774;7.220;2022-10-30T06:01:29;11.60;99.90
23411;DHT22;11878;51.774;7.220;2022-10-30T06:04:35;11.50;99.90
23411;DHT22;11878;51.774;7.220;2022-10-30T06:07:42;11.60;99.90
23411;DHT22;11878;51.774;7.220;2022-10-30T06:10:44;11.60;99.90
23411;DHT22;11878;51.774;7.220;2022-10-30T06:13:56;11.40;99.90
23411;DHT22;11878;51.774;7.220;2022-10-30T06:17:09;11.60;99.90
23411;DHT22;11878;51.774;7.220;2022-10-30T06:20:11;11.50;99.90
23411;DHT22;11878;51.774;7.220;2022-10-30T06:23:27;11.50;99.90
23411;DHT22;11878;51.774;7.220;2022-10-30T06:26:37;11.30;99.90
23411;DHT22;11878;51.774;7.220;2022-10-30T06:29:43;11.30;99.90
23411;DHT22;11878;51.774;7.220;2022-10-30T06:32:45;11.30;99.90
23411;DHT22;11878;51.774;7.220;2022-10-30T06:35:48;11.30;99.90
23411;DHT22;11878;51.774;7.220;2022-10-30T06:38:50;11.40;99.90
23411;DHT22;11878;51.774;7.220;2022-10-30T06:41:54;11.40;99.90
23411;DHT22;11878;51.774;7.220;2022-10-30T06:45:02;11.40;99.90
23411;DHT22;11878;51.774;7.220;2022-10-30T06:48:04;11.30;99.90
23411;DHT22;11878;51.774;7.220;2022-10-30T06:51:14;11.30;99.90
23411;DHT22;11878;51.774;7.220;2022-10-30T06:54:18;11.30;99.90
23411;DHT22;11878;51.774;7.220;2022-10-30T06:57:53;11.30;99.90
23411;DHT22;11878;51.774;7.220;2022-10-30T07:01:21;11.30;99.90
23411;DHT22;11878;51.774;7.220;2022-10-30T07:04:41;11.40;99.90
23411;DHT22;11878;51.774;7.220;2022-10-30T07:07:43;11.40;99.90
23411;DHT22;11878;51.774;7.220;2022-10-30T07:10:45;11.50;99.90
23411;DHT22;11878;51.774;7.220;2022-10-30T07:14:07;11.50;99.90
23411;DHT22;11878;51.774;7.220;2022-10-30T07:17:21;11.50;99.90
23411;DHT22;11878;51.774;7.220;2022-10-30T07:20:31;11.60;99.90
23411;DHT22;11878;51.774;7.220;2022-10-30T07:23:33;11.70;99.90
23411;DHT22;11878;51.774;7.220;2022-10-30T07:26:48;11.80;99.90
23411;DHT22;11878;51.774;7.220;2022-10-30T07:30:04;11.80;99.90
23411;DHT22;11878;51.774;7.220;2022-10-30T07:33:12;11.90;99.90
23411;DHT22;11878;51.774;7.220;2022-10-30T07:36:46;12.00;99.90
23411;DHT22;11878;51.774;7.220;2022-10-30T07:40:00;12.00;99.90
23411;DHT22;11878;51.774;7.220;2022-10-30T07:43:37;12.10;99.90
23411;DHT22;11878;51.774;7.220;2022-10-30T07:46:57;12.20;99.90
23411;DHT22;11878;51.774;7.220;2022-10-30T07:50:18;12.30;99.90
23411;DHT22;11878;51.774;7.220;2022-10-30T07:53:20;12.30;99.90
23411;DHT22;11878;51.774;7.220;2022-10-30T07:56:23;12.40;99.90
23411;DHT22;11878;51.774;7.220;2022-10-30T07:59:25;12.50;99.90
23411;DHT22;11878;51.774;7.220;2022-10-30T08:02:50;12.70;99.90
23411;DHT22;11878;51.774;7.220;2022-10-30T08:06:07;12.80;99.90
23411;DHT22;11878;51.774;7.220;2022-10-30T08:09:11;12.80;99.90
23411;DHT22;11878;51.774;7.220;2022-10-30T08:12:14;13.00;99.90
23411;DHT22;11878;51.774;7.220;2022-10-30T08:15:16;13.10;99.90
23411;DHT22;11878;51.774;7.220;2022-10-30T08:18:18;13.20;99.90
23411;DHT22;11878;51.774;7.220;2022-10-30T08:21:21;13.30;99.90
23411;DHT22;11878;51.774;7.220;2022-10-30T08:24:35;13.50;99.90
23411;DHT22;11878;51.774;7.220;2022-10-30T08:27:38;13.70;99.90
23411;DHT22;11878;51.774;7.220;2022-10-30T08:30:40;13.80;99.90
23411;DHT22;11878;51.774;7.220;2022-10-30T08:33:45;13.90;99.90
23411;DHT22;11878;51.774;7.220;2022-10-30T08:37:08;14.10;99.90
23411;DHT22;11878;51.774;7.220;2022-10-30T08:40:10;14.40;99.90
23411;DHT22;11878;51.774;7.220;2022-10-30T08:43:24;14.70;99.90
23411;DHT22;11878;51.774;7.220;2022-10-30T08:46:27;14.90;99.90
23411;DHT22;11878;51.774;7.220;2022-10-30T08:49:28;15.10;99.90
23411;DHT22;11878;51.774;7.220;2022-10-30T08:52:32;15.40;99.90
23411;DHT22;11878;51.774;7.220;2022-10-30T08:55:34;15.70;99.90
23411;DHT22;11878;51.774;7.220;2022-10-30T08:58:40;15.90;99.90
23411;DHT22;11878;51.774;7.220;2022-10-30T09:01:42;16.20;99.90
23411;DHT22;11878;51.774;7.220;2022-10-30T09:04:53;16.50;99.90
23411;DHT22;11878;51.774;7.220;2022-10-30T09:08:13;16.80;99.90
23411;DHT22;11878;51.774;7.220;2022-10-30T09:11:33;17.00;99.90
23411;DHT22;11878;51.774;7.220;2022-10-30T09:14:34;17.30;99.90
23411;DHT22;11878;51.774;7.220;2022-10-30T09:17:36;17.50;99.90
23411;DHT22;11878;51.774;7.220;2022-10-30T09:20:38;17.80;99.90
23411;DHT22;11878;51.774;7.220;2022-10-30T09:23:42;17.90;99.90
23411;DHT22;11878;51.774;7.220;2022-10-30T09:27:07;18.20;99.90
23411;DHT22;11878;51.774;7.220;2022-10-30T09:30:18;18.50;99.90
23411;DHT22;11878;51.774;7.220;2022-10-30T09:33:24;18.70;99.90
23411;DHT22;11878;51.774;7.220;2022-10-30T09:36:52;18.80;99.90
23411;DHT22;11878;51.774;7.220;2022-10-30T09:39:54;19.20;99.90
23411;DHT22;11878;51.774;7.220;2022-10-30T09:46:19;19.40;99.90
23411;DHT22;11878;51.774;7.220;2022-10-30T09:49:44;19.80;99.90
23411;DHT22;11878;51.774;7.220;2022-10-30T09:52:55;20.10;99.90
23411;DHT22;11878;51.774;7.220;2022-10-30T09:56:11;20.40;99.90
23411;DHT22;11878;51.774;7.220;2022-10-30T10:03:22;20.70;99.90
23411;DHT22;11878;51.774;7.220;2022-10-30T10:06:55;20.70;99.90
23411;DHT22;11878;51.774;7.220;2022-10-30T10:10:20;20.90;99.90
23411;DHT22;11878;51.774;7.220;2022-10-30T10:13:44;20.40;99.90
23411;DHT22;11878;51.774;7.220;2022-10-30T10:16:51;20.30;99.90
23411;DHT22;11878;51.774;7.220;2022-10-30T10:20:00;20.20;99.90
23411;DHT22;11878;51.774;7.220;2022-10-30T10:23:17;20.20;99.90
23411;DHT22;11878;51.774;7.220;2022-10-30T10:26:31;20.10;99.90
23411;DHT22;11878;51.774;7.220;2022-10-30T10:29:58;20.20;99.90
23411;DHT22;11878;51.774;7.220;2022-10-30T10:33:11;20.40;99.90
23411;DHT22;11878;51.774;7.220;2022-10-30T10:43:17;20.20;99.90
23411;DHT22;11878;51.774;7.220;2022-10-30T10:46:38;20.00;99.90
23411;DHT22;11878;51.774;7.220;2022-10-30T10:53:20;20.10;99.90
23411;DHT22;11878;51.774;7.220;2022-10-30T10:56:28;20.20;99.90
23411;DHT22;11878;51.774;7.220;2022-10-30T10:59:37;20.20;99.90
23411;DHT22;11878;51.774;7.220;2022-10-30T11:03:08;20.20;99.90
23411;DHT22;11878;51.774;7.220;2022-10-30T11:06:21;20.10;99.90
23411;DHT22;11878;51.774;7.220;2022-10-30T11:09:25;20.20;99.90
23411;DHT22;11878;51.774;7.220;2022-10-30T11:12:34;20.50;99.90
23411;DHT22;11878;51.774;7.220;2022-10-30T11:19:07;21.00;99.90
23411;DHT22;11878;51.774;7.220;2022-10-30T11:25:34;21.40;99.90
23411;DHT22;11878;51.774;7.220;2022-10-30T11:28:41;21.40;99.90
23411;DHT22;11878;51.774;7.220;2022-10-30T11:31:45;21.80;99.90
23411;DHT22;11878;51.774;7.220;2022-10-30T11:35:15;22.10;99.90
23411;DHT22;11878;51.774;7.220;2022-10-30T11:38:19;22.20;99.90
23411;DHT22;11878;51.774;7.220;2022-10-30T11:41:21;22.80;99.90
23411;DHT22;11878;51.774;7.220;2022-10-30T11:44:28;23.30;99.90
23411;DHT22;11878;51.774;7.220;2022-10-30T11:47:35;23.50;99.90
23411;DHT22;11878;51.774;7.220;2022-10-30T11:50:37;23.50;99.90
23411;DHT22;11878;51.774;7.220;2022-10-30T11:53:48;23.70;99.90
23411;DHT22;11878;51.774;7.220;2022-10-30T11:56:51;24.00;99.90
23411;DHT22;11878;51.774;7.220;2022-10-30T11:59:55;23.70;99.90
23411;DHT22;11878;51.774;7.220;2022-10-30T12:03:35;23.60;98.60
23411;DHT22;11878;51.774;7.220;2022-10-30T12:06:37;23.20;99.90
23411;DHT22;11878;51.774;7.220;2022-10-30T12:09:44;22.60;99.90
23411;DHT22;11878;51.774;7.220;2022-10-30T12:12:49;22.60;99.90
23411;DHT22;11878;51.774;7.220;2022-10-30T12:16:17;22.60;99.90
23411;DHT22;11878;51.774;7.220;2022-10-30T12:19:21;22.70;98.80
23411;DHT22;11878;51.774;7.220;2022-10-30T12:22:31;22.70;99.90
23411;DHT22;11878;51.774;7.220;2022-10-30T12:25:33;23.00;99.30
23411;DHT22;11878;51.774;7.220;2022-10-30T12:28:35;23.40;99.90
23411;DHT22;11878;51.774;7.220;2022-10-30T12:31:45;23.30;98.00
23411;DHT22;11878;51.774;7.220;2022-10-30T12:34:55;23.40;96.90
23411;DHT22;11878;51.774;7.220;2022-10-30T12:38:00;23.20;96.60
23411;DHT22;11878;51.774;7.220;2022-10-30T12:51:46;22.50;99.90
23411;DHT22;11878;51.774;7.220;2022-10-30T12:54:54;22.30;99.90
23411;DHT22;11878;51.774;7.220;2022-10-30T12:58:17;22.20;99.90
23411;DHT22;11878;51.774;7.220;2022-10-30T13:01:26;22.50;99.90
23411;DHT22;11878;51.774;7.220;2022-10-30T13:04:35;22.40;99.90
23411;DHT22;11878;51.774;7.220;2022-10-30T13:07:50;22.40;99.90
23411;DHT22;11878;51.774;7.220;2022-10-30T13:10:55;22.60;99.90
23411;DHT22;11878;51.774;7.220;2022-10-30T13:13:59;22.80;99.90
23411;DHT22;11878;51.774;7.220;2022-10-30T13:17:02;22.60;99.90
23411;DHT22;11878;51.774;7.220;2022-10-30T13:20:13;22.60;99.90
23411;DHT22;11878;51.774;7.220;2022-10-30T13:23:20;22.90;99.90
23411;DHT22;11878;51.774;7.220;2022-10-30T13:26:32;22.60;99.90
23411;DHT22;11878;51.774;7.220;2022-10-30T13:33:15;22.50;99.90
23411;DHT22;11878;51.774;7.220;2022-10-30T13:36:48;22.50;99.90
23411;DHT22;11878;51.774;7.220;2022-10-30T13:49:58;22.00;99.90
23411;DHT22;11878;51.774;7.220;2022-10-30T13:53:05;22.10;99.90
23411;DHT22;11878;51.774;7.220;2022-10-30T13:56:15;22.00;99.90
23411;DHT22;11878;51.774;7.220;2022-10-30T13:59:26;22.00;99.90
23411;DHT22;11878;51.774;7.220;2022-10-30T14:06:40;21.70;99.90
23411;DHT22;11878;51.774;7.220;2022-10-30T14:10:01;21.50;99.90
23411;DHT22;11878;51.774;7.220;2022-10-30T14:13:12;21.40;99.90
23411;DHT22;11878;51.774;7.220;2022-10-30T14:16:41;21.30;99.90
23411;DHT22;11878;51.774;7.220;2022-10-30T14:26:20;21.20;99.90
23411;DHT22;11878;51.774;7.220;2022-10-30T14:29:44;21.10;99.90
23411;DHT22;11878;51.774;7.220;2022-10-30T14:32:50;21.00;99.90
23411;DHT22;11878;51.774;7.220;2022-10-30T14:36:16;20.90;99.90
23411;DHT22;11878;51.774;7.220;2022-10-30T14:42:22;20.80;99.90
23411;DHT22;11878;51.774;7.220;2022-10-30T14:45:29;20.70;99.90
23411;DHT22;11878;51.774;7.220;2022-10-30T14:49:04;20.50;99.90
23411;DHT22;11878;51.774;7.220;2022-10-30T14:52:23;20.50;99.90
23411;DHT22;11878;51.774;7.220;2022-10-30T14:55:54;20.30;99.90
23411;DHT22;11878;51.774;7.220;2022-10-30T15:05:53;20.10;99.90
23411;DHT22;11878;51.774;7.220;2022-10-30T15:12:32;19.80;99.90
23411;DHT22;11878;51.774;7.220;2022-10-30T15:15:38;19.70;99.90
23411;DHT22;11878;51.774;7.220;2022-10-30T15:18:40;19.70;99.90
23411;DHT22;11878;51.774;7.220;2022-10-30T15:21:44;19.60;99.90
23411;DHT22;11878;51.774;7.220;2022-10-30T15:24:46;19.50;99.90
23411;DHT22;11878;51.774;7.220;2022-10-30T15:27:51;19.30;99.90
23411;DHT22;11878;51.774;7.220;2022-10-30T15:31:28;19.20;99.90
23411;DHT22;11878;51.774;7.220;2022-10-30T15:34:30;18.90;99.90
23411;DHT22;11878;51.774;7.220;2022-10-30T15:37:33;18.90;99.90
23411;DHT22;11878;51.774;7.220;2022-10-30T15:40:37;18.80;99.90
23411;DHT22;11878;51.774;7.220;2022-10-30T15:43:41;18.60;99.90
23411;DHT22;11878;51.774;7.220;2022-10-30T15:46:45;18.50;99.90
23411;DHT22;11878;51.774;7.220;2022-10-30T15:49:51;18.40;99.90
23411;DHT22;11878;51.774;7.220;2022-10-30T15:52:57;18.30;99.90
23411;DHT22;11878;51.774;7.220;2022-10-30T15:56:00;18.30;99.90
23411;DHT22;11878;51.774;7.220;2022-10-30T15:59:04;18.20;99.90
23411;DHT22;11878;51.774;7.220;2022-10-30T16:02:23;18.10;99.90
23411;DHT22;11878;51.774;7.220;2022-10-30T16:05:27;17.90;99.90
23411;DHT22;11878;51.774;7.220;2022-10-30T16:08:29;17.80;99.90
23411;DHT22;11878;51.774;7.220;2022-10-30T16:11:31;17.70;99.90
23411;DHT22;11878;51.774;7.220;2022-10-30T16:14:35;17.70;99.90
23411;DHT22;11878;51.774;7.220;2022-10-30T16:17:37;17.60;99.90
23411;DHT22;11878;51.774;7.220;2022-10-30T16:20:41;17.30;99.90
23411;DHT22;11878;51.774;7.220;2022-10-30T16:23:49;17.30;99.90
23411;DHT22;11878;51.774;7.220;2022-10-30T16:27:05;17.20;99.90
23411;DHT22;11878;51.774;7.220;2022-10-30T16:30:12;17.00;99.90
23411;DHT22;11878;51.774;7.220;2022-10-30T16:33:14;16.90;99.90
23411;DHT22;11878;51.774;7.220;2022-10-30T16:36:18;16.90;99.90
23411;DHT22;11878;51.774;7.220;2022-10-30T16:39:21;16.80;99.90
23411;DHT22;11878;51.774;7.220;2022-10-30T16:42:24;16.70;99.90
23411;DHT22;11878;51.774;7.220;2022-10-30T16:45:45;16.70;99.90
23411;DHT22;11878;51.774;7.220;2022-10-30T16:48:58;16.60;99.90
23411;DHT22;11878;51.774;7.220;2022-10-30T16:52:09;16.50;99.90
23411;DHT22;11878;51.774;7.220;2022-10-30T16:55:22;16.40;99.90
23411;DHT22;11878;51.774;7.220;2022-10-30T16:58:26;16.30;99.90
23411;DHT22;11878;51.774;7.220;2022-10-30T17:01:28;16.30;99.90
23411;DHT22;11878;51.774;7.220;2022-10-30T17:04:32;16.20;99.90
23411;DHT22;11878;51.774;7.220;2022-10-30T17:07:36;16.20;99.90
23411;DHT22;11878;51.774;7.220;2022-10-30T17:14:17;15.90;99.90
23411;DHT22;11878;51.774;7.220;2022-10-30T17:17:23;15.90;99.90
23411;DHT22;11878;51.774;7.220;2022-10-30T17:20:26;15.90;99.90
23411;DHT22;11878;51.774;7.220;2022-10-30T17:23:33;15.80;99.90
23411;DHT22;11878;51.774;7.220;2022-10-30T17:26:36;15.70;99.90
23411;DHT22;11878;51.774;7.220;2022-10-30T17:32:44;15.60;99.90
23411;DHT22;11878;51.774;7.220;2022-10-30T17:35:45;15.60;99.90
23411;DHT22;11878;51.774;7.220;2022-10-30T17:38:47;15.50;99.90
23411;DHT22;11878;51.774;7.220;2022-10-30T17:41:50;15.40;99.90
23411;DHT22;11878;51.774;7.220;2022-10-30T17:44:53;15.30;99.90
23411;DHT22;11878;51.774;7.220;2022-10-30T17:47:54;15.40;99.90
23411;DHT22;11878;51.774;7.220;2022-10-30T17:50:56;15.30;99.90
23411;DHT22;11878;51.774;7.220;2022-10-30T17:53:58;15.20;99.90
23411;DHT22;11878;51.774;7.220;2022-10-30T17:57:00;15.10;99.90
23411;DHT22;11878;51.774;7.220;2022-10-30T18:00:01;15.10;99.90
23411;DHT22;11878;51.774;7.220;2022-10-30T18:03:12;15.00;99.90
23411;DHT22;11878;51.774;7.220;2022-10-30T18:06:19;14.90;99.90
23411;DHT22;11878;51.774;7.220;2022-10-30T18:09:21;15.00;99.90
23411;DHT22;11878;51.774;7.220;2022-10-30T18:12:22;15.90;99.90
23411;DHT22;11878;51.774;7.220;2022-10-30T18:18:29;14.90;99.90
23411;DHT22;11878;51.774;7.220;2022-10-30T18:21:30;14.90;99.90
23411;DHT22;11878;51.774;7.220;2022-10-30T18:24:32;14.80;99.90
23411;DHT22;11878;51.774;7.220;2022-10-30T18:27:34;14.80;99.90
23411;DHT22;11878;51.774;7.220;2022-10-30T18:30:35;14.80;99.90
23411;DHT22;11878;51.774;7.220;2022-10-30T18:33:38;14.70;99.90
23411;DHT22;11878;51.774;7.220;2022-10-30T18:36:39;14.70;99.90
23411;DHT22;11878;51.774;7.220;2022-10-30T18:39:41;14.60;99.90
23411;DHT22;11878;51.774;7.220;2022-10-30T18:42:43;14.50;99.90
23411;DHT22;11878;51.774;7.220;2022-10-30T18:45:44;14.70;99.90
23411;DHT22;11878;51.774;7.220;2022-10-30T18:48:46;14.60;99.90
23411;DHT22;11878;51.774;7.220;2022-10-30T18:51:48;14.60;99.90
23411;DHT22;11878;51.774;7.220;2022-10-30T18:54:49;14.60;99.90
23411;DHT22;11878;51.774;7.220;2022-10-30T18:57:51;14.60;99.90
23411;DHT22;11878;51.774;7.220;2022-10-30T19:00:53;14.70;99.90
23411;DHT22;11878;51.774;7.220;2022-10-30T19:04:15;14.70;99.90
23411;DHT22;11878;51.774;7.220;2022-10-30T19:07:22;14.70;99.90
23411;DHT22;11878;51.774;7.220;2022-10-30T19:10:25;14.70;99.90
23411;DHT22;11878;51.774;7.220;2022-10-30T19:13:27;14.60;99.90
23411;DHT22;11878;51.774;7.220;2022-10-30T19:16:28;14.50;99.90
23411;DHT22;11878;51.774;7.220;2022-10-30T19:19:30;14.50;99.90
23411;DHT22;11878;51.774;7.220;2022-10-30T19:22:32;14.50;99.90
23411;DHT22;11878;51.774;7.220;2022-10-30T19:25:34;14.50;99.90
23411;DHT22;11878;51.774;7.220;2022-10-30T19:28:36;14.50;99.90
23411;DHT22;11878;51.774;7.220;2022-10-30T19:31:38;14.40;99.90
23411;DHT22;11878;51.774;7.220;2022-10-30T19:34:40;14.40;99.90
23411;DHT22;11878;51.774;7.220;2022-10-30T19:37:46;14.30;99.90
23411;DHT22;11878;51.774;7.220;2022-10-30T19:40:48;14.30;99.90
23411;DHT22;11878;51.774;7.220;2022-10-30T19:43:50;14.30;99.90
23411;DHT22;11878;51.774;7.220;2022-10-30T19:46:52;14.30;99.90
23411;DHT22;11878;51.774;7.220;2022-10-30T19:49:53;14.20;99.90
23411;DHT22;11878;51.774;7.220;2022-10-30T19:52:57;14.20;99.90
23411;DHT22;11878;51.774;7.220;2022-10-30T19:55:59;14.20;99.90
23411;DHT22;11878;51.774;7.220;2022-10-30T19:59:01;14.10;99.90
23411;DHT22;11878;51.774;7.220;2022-10-30T20:02:04;14.10;99.90
23411;DHT22;11878;51.774;7.220;2022-10-30T20:05:13;14.10;99.90
23411;DHT22;11878;51.774;7.220;2022-10-30T20:08:20;14.00;99.90
23411;DHT22;11878;51.774;7.220;2022-10-30T20:11:22;14.00;99.90
23411;DHT22;11878;51.774;7.220;2022-10-30T20:14:23;14.10;99.90
23411;DHT22;11878;51.774;7.220;2022-10-30T20:17:25;14.10;99.90
23411;DHT22;11878;51.774;7.220;2022-10-30T20:20:30;14.10;99.90
23411;DHT22;11878;51.774;7.220;2022-10-30T20:23:32;14.10;99.90
23411;DHT22;11878;51.774;7.220;2022-10-30T20:26:34;14.00;99.90
23411;DHT22;11878;51.774;7.220;2022-10-30T20:29:39;14.10;99.90
23411;DHT22;11878;51.774;7.220;2022-10-30T20:32:43;14.10;99.90
23411;DHT22;11878;51.774;7.220;2022-10-30T20:35:49;14.10;99.90
23411;DHT22;11878;51.774;7.220;2022-10-30T20:38:50;14.10;99.90
23411;DHT22;11878;51.774;7.220;2022-10-30T20:41:52;14.10;99.90
23411;DHT22;11878;51.774;7.220;2022-10-30T20:44:54;14.10;99.90
23411;DHT22;11878;51.774;7.220;2022-10-30T20:47:56;14.10;99.90
23411;DHT22;11878;51.774;7.220;2022-10-30T20:50:59;14.10;99.90
23411;DHT22;11878;51.774;7.220;2022-10-30T20:54:01;14.10;99.90
23411;DHT22;11878;51.774;7.220;2022-10-30T20:57:03;14.00;99.90
23411;DHT22;11878;51.774;7.220;2022-10-30T21:00:07;14.10;99.90
23411;DHT22;11878;51.774;7.220;2022-10-30T21:03:10;14.00;99.90
23411;DHT22;11878;51.774;7.220;2022-10-30T21:06:14;14.00;99.90
23411;DHT22;11878;51.774;7.220;2022-10-30T21:09:16;14.00;99.90
23411;DHT22;11878;51.774;7.220;2022-10-30T21:12:18;14.00;99.90
23411;DHT22;11878;51.774;7.220;2022-10-30T21:15:20;14.00;99.90
23411;DHT22;11878;51.774;7.220;2022-10-30T21:18:21;13.90;99.90
23411;DHT22;11878;51.774;7.220;2022-10-30T21:21:23;13.80;99.90
23411;DHT22;11878;51.774;7.220;2022-10-30T21:24:26;13.90;99.90
23411;DHT22;11878;51.774;7.220;2022-10-30T21:27:28;13.80;99.90
23411;DHT22;11878;51.774;7.220;2022-10-30T21:30:30;13.80;99.90